createdAt,value
2019-05-09T00:02:26.736Z,5.60
2019-05-09T00:05:22.618Z,7.13
2019-05-09T00:08:14.510Z,3.90
2019-05-09T00:11:08.303Z,6.13
2019-05-09T00:14:14.858Z,4.77
2019-05-09T00:17:08.872Z,4.53
2019-05-09T00:20:03.573Z,5.77
2019-05-09T00:23:23.851Z,6.03
2019-05-09T00:26:28.860Z,5.70
2019-05-09T00:29:24.382Z,5.63
2019-05-09T00:32:43.168Z,8.43
2019-05-09T00:35:49.500Z,6.27
2019-05-09T00:38:56.244Z,5.27
2019-05-09T00:41:36.801Z,7.23
2019-05-09T00:44:30.003Z,8.50
2019-05-09T00:47:36.425Z,9.87
2019-05-09T00:50:43.709Z,7.30
2019-05-09T00:53:35.324Z,7.53
2019-05-09T00:56:28.653Z,8.33
2019-05-09T00:59:18.406Z,8.37
2019-05-09T01:02:04.161Z,11.00
2019-05-09T01:05:10.202Z,6.20
2019-05-09T01:07:50.368Z,10.00
2019-05-09T01:11:07.514Z,8.27
2019-05-09T01:13:49.804Z,14.17
2019-05-09T01:16:44.058Z,9.87
2019-05-09T01:19:48.882Z,6.53
2019-05-09T01:22:55.640Z,10.17
2019-05-09T01:25:13.442Z,12.43
2019-05-09T01:27:43.022Z,10.23
2019-05-09T01:30:10.118Z,10.83
2019-05-09T01:32:55.698Z,10.83
2019-05-09T01:36:03.613Z,12.20
2019-05-09T01:39:20.973Z,10.30
2019-05-09T01:42:27.872Z,11.77
2019-05-09T01:45:34.593Z,9.00
2019-05-09T01:48:43.013Z,10.70
2019-05-09T01:51:08.471Z,11.57
2019-05-09T01:54:03.669Z,10.17
2019-05-09T01:57:08.234Z,11.73
2019-05-09T02:00:15.163Z,9.63
2019-05-09T02:03:09.362Z,10.93
2019-05-09T02:06:03.481Z,12.03
2019-05-09T02:09:23.434Z,11.47
2019-05-09T02:12:28.858Z,8.77
2019-05-09T02:15:34.991Z,10.73
2019-05-09T02:18:43.967Z,17.67
2019-05-09T02:21:48.368Z,10.47
2019-05-09T02:24:44.073Z,9.07
2019-05-09T02:27:47.912Z,10.07
2019-05-09T02:30:40.950Z,8.60
2019-05-09T02:33:46.680Z,8.87
2019-05-09T02:36:49.742Z,11.40
2019-05-09T02:40:10.452Z,11.50
2019-05-09T02:43:18.878Z,9.37
2019-05-09T02:46:12.380Z,9.07
2019-05-09T02:49:19.112Z,6.60
2019-05-09T02:52:09.429Z,5.17
2019-05-09T02:55:04.437Z,8.37
2019-05-09T02:57:49.676Z,7.70
2019-05-09T03:00:59.571Z,5.20
2019-05-09T03:03:58.993Z,6.43
2019-05-09T03:06:51.847Z,9.87
2019-05-09T03:09:58.378Z,8.00
2019-05-09T03:12:51.389Z,10.53
2019-05-09T03:15:44.567Z,5.90
2019-05-09T03:18:38.995Z,8.37
2019-05-09T03:21:45.289Z,8.37
2019-05-09T03:24:51.803Z,7.10
2019-05-09T03:27:48.437Z,9.33
2019-05-09T03:30:52.333Z,8.40
2019-05-09T03:33:45.376Z,8.27
2019-05-09T03:36:39.865Z,7.30
2019-05-09T03:39:23.800Z,7.23
2019-05-09T03:42:21.550Z,7.97
2019-05-09T03:45:48.166Z,9.53
2019-05-09T03:48:41.917Z,8.47
2019-05-09T03:51:48.266Z,7.43
2019-05-09T03:54:41.827Z,9.90
2019-05-09T03:57:48.288Z,7.50
2019-05-09T04:00:29.843Z,5.77
2019-05-09T04:03:22.920Z,5.83
2019-05-09T04:06:29.260Z,6.23
2019-05-09T04:09:37.553Z,11.70
2019-05-09T04:12:28.910Z,6.17
2019-05-09T04:15:34.847Z,6.73
2019-05-09T04:18:41.933Z,6.57
2019-05-09T04:21:35.440Z,6.60
2019-05-09T04:24:42.488Z,7.17
2019-05-09T04:27:48.864Z,6.30
2019-05-09T04:30:42.068Z,6.27
2019-05-09T04:33:35.428Z,7.47
2019-05-09T04:36:19.883Z,8.27
2019-05-09T04:39:23.961Z,4.67
2019-05-09T04:42:30.341Z,11.10
2019-05-09T04:45:23.809Z,5.10
2019-05-09T04:48:23.905Z,4.80
2019-05-09T04:50:50.782Z,4.70
2019-05-09T04:54:08.683Z,5.60
2019-05-09T04:57:15.150Z,6.73
2019-05-09T05:00:10.112Z,3.67
2019-05-09T05:02:57.525Z,5.00
2019-05-09T05:05:28.359Z,6.93
2019-05-09T05:08:01.393Z,5.70
2019-05-09T05:10:52.442Z,4.63
2019-05-09T05:13:35.288Z,4.47
2019-05-09T05:16:39.389Z,3.20
2019-05-09T05:19:44.908Z,4.60
2019-05-09T05:22:51.416Z,5.43
2019-05-09T05:25:47.600Z,6.40
2019-05-09T05:28:48.873Z,4.90
2019-05-09T05:32:03.305Z,5.50
2019-05-09T05:34:57.448Z,5.20
2019-05-09T05:37:50.410Z,5.27
2019-05-09T05:40:32.758Z,10.17
2019-05-09T05:43:37.884Z,5.47
2019-05-09T05:46:30.893Z,4.40
2019-05-09T05:49:11.860Z,7.37
2019-05-09T05:52:05.290Z,4.23
2019-05-09T05:54:59.970Z,3.50
2019-05-09T05:58:08.398Z,4.53
2019-05-09T06:01:04.190Z,7.53
2019-05-09T06:03:55.630Z,6.63
2019-05-09T06:07:04.060Z,2.23
2019-05-09T06:10:10.410Z,3.73
2019-05-09T06:13:04.126Z,4.53
2019-05-09T06:16:11.027Z,3.47
2019-05-09T06:19:21.046Z,5.20
2019-05-09T06:22:27.671Z,4.67
2019-05-09T06:25:35.315Z,4.93
2019-05-09T06:28:29.310Z,2.90
2019-05-09T06:31:23.146Z,6.73
2019-05-09T06:34:29.400Z,4.20
2019-05-09T06:37:23.287Z,6.83
2019-05-09T06:40:04.002Z,4.37
2019-05-09T06:43:01.530Z,3.83
2019-05-09T06:45:57.579Z,2.57
2019-05-09T06:48:50.826Z,4.90
2019-05-09T06:51:44.802Z,4.23
2019-05-09T06:54:41.243Z,5.43
2019-05-09T06:57:31.950Z,1.97
2019-05-09T07:00:28.312Z,4.90
2019-05-09T07:03:21.517Z,3.17
2019-05-09T07:06:28.495Z,4.20
2019-05-09T07:09:22.354Z,2.77
2019-05-09T07:12:18.069Z,4.77
2019-05-09T07:15:11.660Z,3.67
2019-05-09T07:18:19.294Z,4.07
2019-05-09T07:21:09.387Z,9.47
2019-05-09T07:23:58.061Z,4.33
2019-05-09T07:27:02.398Z,4.93
2019-05-09T07:29:58.150Z,3.80
2019-05-09T07:32:45.616Z,2.57
2019-05-09T07:35:32.477Z,3.93
2019-05-09T07:38:28.792Z,4.30
2019-05-09T07:41:23.907Z,6.33
2019-05-09T07:44:08.349Z,5.37
2019-05-09T07:47:12.863Z,5.33
2019-05-09T07:50:11.357Z,3.07
2019-05-09T07:53:00.855Z,5.63
2019-05-09T07:56:12.766Z,3.10
2019-05-09T07:58:53.741Z,5.37
2019-05-09T08:01:48.899Z,3.57
2019-05-09T08:04:40.264Z,2.57
2019-05-09T08:07:35.117Z,3.97
2019-05-09T08:10:32.329Z,3.27
2019-05-09T08:13:35.286Z,3.43
2019-05-09T08:16:42.036Z,3.63
2019-05-09T08:19:23.201Z,6.53
2019-05-09T08:22:24.901Z,3.03
2019-05-09T08:25:22.734Z,5.33
2019-05-09T08:28:21.248Z,4.07
2019-05-09T08:31:35.688Z,4.03
2019-05-09T08:34:42.878Z,6.43
2019-05-09T08:37:38.801Z,3.20
2019-05-09T08:40:58.774Z,4.97
2019-05-09T08:43:37.700Z,5.13
2019-05-09T08:46:30.896Z,2.87
2019-05-09T08:49:24.313Z,4.13
2019-05-09T08:52:19.884Z,3.60
2019-05-09T08:55:38.329Z,2.50
2019-05-09T08:58:19.542Z,2.87
2019-05-09T09:01:27.390Z,2.90
2019-05-09T09:04:31.948Z,2.20
2019-05-09T09:07:29.471Z,1.93
2019-05-09T09:10:18.480Z,1.97
2019-05-09T09:13:12.970Z,1.03
2019-05-09T09:16:18.018Z,3.47
2019-05-09T09:19:28.067Z,2.07
2019-05-09T09:22:20.400Z,1.07
2019-05-09T09:24:51.571Z,1.83
2019-05-09T09:27:24.094Z,2.33
2019-05-09T09:29:58.502Z,1.43
2019-05-09T09:32:27.800Z,1.00
2019-05-09T09:34:54.070Z,1.33
2019-05-09T09:37:52.005Z,0.60
2019-05-09T09:40:41.896Z,1.93
2019-05-09T09:43:21.765Z,2.87
2019-05-09T09:46:06.340Z,1.20
2019-05-09T09:49:07.994Z,0.90
2019-05-09T09:52:02.009Z,1.53
2019-05-09T09:54:47.947Z,1.63
2019-05-09T09:57:22.430Z,2.43
2019-05-09T09:59:58.209Z,0.97
2019-05-09T10:02:38.061Z,4.13
2019-05-09T10:05:10.852Z,1.33
2019-05-09T10:07:49.004Z,1.03
2019-05-09T10:10:36.933Z,0.77
2019-05-09T10:13:15.300Z,1.23
2019-05-09T10:16:01.432Z,2.77
2019-05-09T10:18:38.053Z,2.83
2019-05-09T10:21:20.576Z,1.97
2019-05-09T10:24:02.542Z,1.47
2019-05-09T10:26:52.210Z,1.07
2019-05-09T10:29:33.823Z,3.10
2019-05-09T10:32:32.013Z,0.67
2019-05-09T10:35:10.798Z,1.33
2019-05-09T10:37:53.360Z,0.50
2019-05-09T10:40:35.324Z,2.00
2019-05-09T10:43:38.008Z,3.93
2019-05-09T10:46:48.110Z,1.40
2019-05-09T10:49:19.742Z,1.20
2019-05-09T10:52:14.533Z,0.70
2019-05-09T10:55:19.815Z,0.80
2019-05-09T10:57:53.782Z,1.43
2019-05-09T11:00:48.294Z,0.40
2019-05-09T11:03:37.651Z,0.80
2019-05-09T11:06:18.342Z,0.50
2019-05-09T11:09:10.074Z,1.47
2019-05-09T11:11:51.475Z,0.60
2019-05-09T11:14:37.275Z,1.87
2019-05-09T11:17:18.442Z,1.00
2019-05-09T11:20:08.723Z,0.53
2019-05-09T11:23:02.037Z,0.83
2019-05-09T11:25:59.202Z,1.07
2019-05-09T11:28:50.225Z,1.60
2019-05-09T11:31:44.902Z,5.63
2019-05-09T11:34:52.456Z,1.10
2019-05-09T11:37:26.485Z,0.87
2019-05-09T11:39:57.851Z,1.40
2019-05-09T11:42:43.366Z,1.17
2019-05-09T11:45:24.972Z,0.80
2019-05-09T11:48:14.818Z,1.90
2019-05-09T11:50:59.412Z,2.33
2019-05-09T11:53:40.883Z,0.83
2019-05-09T11:56:29.590Z,0.90
2019-05-09T11:59:04.487Z,3.97
2019-05-09T12:01:53.119Z,1.50
2019-05-09T12:04:33.343Z,2.40
2019-05-09T12:07:23.683Z,2.97
2019-05-09T12:09:55.624Z,3.13
2019-05-09T12:12:31.863Z,5.03
2019-05-09T12:15:20.252Z,0.67
2019-05-09T12:18:08.381Z,0.70
2019-05-09T12:20:48.271Z,0.47
2019-05-09T12:23:29.161Z,1.93
2019-05-09T12:26:04.031Z,0.83
2019-05-09T12:29:05.485Z,0.93
2019-05-09T12:31:38.611Z,1.37
2019-05-09T12:34:18.928Z,2.93
2019-05-09T12:36:58.404Z,2.10
2019-05-09T12:39:37.866Z,0.53
2019-05-09T12:42:43.863Z,1.43
2019-05-09T12:45:11.929Z,1.77
2019-05-09T12:48:07.423Z,1.83
2019-05-09T12:50:38.725Z,2.10
2019-05-09T12:53:30.312Z,1.40
2019-05-09T12:56:05.108Z,1.27
2019-05-09T12:58:40.102Z,0.70
2019-05-09T13:01:22.910Z,1.13
2019-05-09T13:04:03.143Z,2.00
2019-05-09T13:06:48.734Z,1.13
2019-05-09T13:09:28.581Z,0.87
2019-05-09T13:12:04.083Z,0.37
2019-05-09T13:14:41.349Z,1.13
2019-05-09T13:17:27.738Z,1.07
2019-05-09T13:19:59.684Z,0.40
2019-05-09T13:22:37.270Z,0.53
2019-05-09T13:25:19.988Z,2.30
2019-05-09T13:27:58.717Z,1.20
2019-05-09T13:30:37.782Z,0.40
2019-05-09T13:33:20.457Z,0.30
2019-05-09T13:36:02.813Z,0.70
2019-05-09T13:39:00.325Z,0.40
2019-05-09T13:41:37.625Z,1.53
2019-05-09T13:44:17.869Z,1.17
2019-05-09T13:47:18.039Z,2.50
2019-05-09T13:50:11.874Z,0.73
2019-05-09T13:53:07.580Z,0.93
2019-05-09T13:56:00.641Z,4.90
2019-05-09T13:58:58.083Z,0.70
2019-05-09T14:01:50.090Z,0.63
2019-05-09T14:04:30.682Z,1.53
2019-05-09T14:07:27.741Z,1.10
2019-05-09T14:10:11.084Z,0.90
2019-05-09T14:13:09.784Z,2.17
2019-05-09T14:15:57.484Z,0.47
2019-05-09T14:18:49.911Z,0.70
2019-05-09T14:21:43.972Z,0.40
2019-05-09T14:24:39.184Z,1.40
2019-05-09T14:27:34.204Z,0.50
2019-05-09T14:30:29.244Z,1.00
2019-05-09T14:33:29.616Z,1.53
2019-05-09T14:36:30.468Z,0.57
2019-05-09T14:39:24.655Z,0.43
2019-05-09T14:42:09.059Z,1.90
2019-05-09T14:45:00.623Z,4.40
2019-05-09T14:47:55.831Z,1.10
2019-05-09T14:50:44.319Z,0.40
2019-05-09T14:56:42.087Z,2.67
2019-05-09T14:59:09.758Z,1.57
2019-05-09T15:02:01.613Z,0.60
2019-05-09T15:05:01.062Z,0.53
2019-05-09T15:07:49.368Z,0.43
2019-05-09T15:10:38.466Z,0.77
2019-05-09T15:13:37.345Z,1.43
2019-05-09T15:16:18.933Z,0.97
2019-05-09T15:19:28.571Z,1.17
2019-05-09T15:22:33.257Z,0.87
2019-05-09T15:25:19.380Z,0.60
2019-05-09T15:27:57.811Z,2.77
2019-05-09T15:30:49.224Z,2.07
2019-05-09T15:33:30.285Z,3.67
2019-05-09T15:36:34.057Z,0.40
2019-05-09T15:39:31.165Z,2.17
2019-05-09T15:42:25.423Z,1.33
2019-05-09T15:45:20.811Z,0.87
2019-05-09T15:48:28.988Z,1.43
2019-05-09T15:51:22.776Z,0.43
2019-05-09T15:54:30.118Z,0.50
2019-05-09T15:57:23.286Z,1.43
2019-05-09T15:59:52.851Z,2.20
2019-05-09T16:02:48.732Z,5.43
2019-05-09T16:05:31.907Z,2.37
2019-05-09T16:08:38.119Z,1.47
2019-05-09T16:11:48.431Z,0.80
2019-05-09T16:14:08.090Z,1.20
2019-05-09T16:16:42.296Z,2.37
2019-05-09T16:19:44.411Z,1.07
2019-05-09T16:22:08.113Z,0.80
2019-05-09T16:25:02.351Z,1.97
2019-05-09T16:27:42.856Z,0.80
2019-05-09T16:30:15.021Z,2.90
2019-05-09T16:33:10.021Z,2.37
2019-05-09T16:36:03.758Z,0.80
2019-05-09T16:38:58.364Z,0.90
2019-05-09T16:41:39.548Z,0.93
2019-05-09T16:44:22.442Z,1.27
2019-05-09T16:47:20.884Z,1.40
2019-05-09T16:50:23.443Z,0.97
2019-05-09T16:53:04.699Z,1.80
2019-05-09T16:56:14.367Z,3.30
2019-05-09T16:58:59.395Z,1.20
2019-05-09T17:01:57.887Z,0.77
2019-05-09T17:04:50.806Z,2.50
2019-05-09T17:07:34.205Z,1.13
2019-05-09T17:10:20.333Z,4.90
2019-05-09T17:13:25.279Z,4.70
2019-05-09T17:15:53.347Z,5.80
2019-05-09T17:18:48.660Z,3.63
2019-05-09T17:21:54.407Z,2.47
2019-05-09T17:25:01.207Z,2.07
2019-05-09T17:28:08.547Z,1.50
2019-05-09T17:30:49.847Z,2.50
2019-05-09T17:34:09.237Z,1.70
2019-05-09T17:36:49.791Z,1.83
2019-05-09T17:39:56.014Z,4.53
2019-05-09T17:42:49.851Z,10.70
2019-05-09T17:45:43.403Z,7.20
2019-05-09T17:48:38.559Z,14.00
2019-05-09T17:51:36.449Z,17.23
2019-05-09T17:54:01.973Z,7.40
2019-05-09T17:57:07.918Z,7.67
2019-05-09T17:59:43.610Z,2.80
2019-05-09T18:02:49.917Z,1.53
2019-05-09T18:05:57.757Z,50.90
2019-05-09T18:09:03.740Z,46.23
2019-05-09T18:12:11.203Z,6.63
2019-05-09T18:14:51.385Z,4.27
2019-05-09T18:17:47.722Z,5.03
2019-05-09T18:20:17.629Z,6.00
2019-05-09T18:22:58.763Z,4.70
2019-05-09T18:28:44.776Z,20.80
2019-05-09T18:31:27.894Z,15.90
2019-05-09T18:34:04.870Z,9.70
2019-05-09T18:36:41.614Z,9.93
2019-05-09T18:39:44.011Z,6.23
2019-05-09T18:42:11.469Z,4.60
2019-05-09T18:45:05.165Z,1.57
2019-05-09T18:47:33.296Z,4.20
2019-05-09T18:50:08.951Z,2.03
2019-05-09T18:52:47.745Z,1.30
2019-05-09T18:55:23.243Z,4.73
2019-05-09T18:57:53.860Z,2.33
2019-05-09T19:00:32.501Z,4.27
2019-05-09T19:03:12.773Z,3.90
2019-05-09T19:05:53.268Z,11.73
2019-05-09T19:08:55.661Z,4.83
2019-05-09T19:11:50.222Z,4.13
2019-05-09T19:15:01.454Z,5.23
2019-05-09T19:18:10.883Z,4.63
2019-05-09T19:20:43.916Z,3.63
2019-05-09T19:23:24.633Z,10.37
2019-05-09T19:26:01.991Z,5.50
2019-05-09T19:28:46.773Z,4.90
2019-05-09T19:31:41.442Z,5.30
2019-05-09T19:34:21.892Z,8.37
2019-05-09T19:37:11.973Z,10.87
2019-05-09T19:42:48.911Z,7.17
2019-05-09T19:45:42.426Z,7.70
2019-05-09T19:48:49.209Z,9.03
2019-05-09T19:51:29.979Z,7.20
2019-05-09T19:54:40.751Z,7.47
2019-05-09T19:57:57.080Z,5.90
2019-05-09T20:01:04.759Z,11.47
2019-05-09T20:03:51.678Z,7.83
2019-05-09T20:06:39.314Z,7.70
2019-05-09T20:09:32.912Z,7.70
2019-05-09T20:12:39.382Z,7.53
2019-05-09T20:15:33.480Z,7.13
2019-05-09T20:18:40.296Z,7.33
2019-05-09T20:21:21.792Z,6.20
2019-05-09T20:24:30.618Z,5.30
2019-05-09T20:27:37.986Z,8.93
2019-05-09T20:30:32.354Z,7.73
2019-05-09T20:33:13.939Z,9.93
2019-05-09T20:36:22.397Z,8.27
2019-05-09T20:39:31.168Z,8.47
2019-05-09T20:42:37.949Z,8.67
2019-05-09T20:45:19.973Z,9.80
2019-05-09T20:48:27.787Z,10.43
2019-05-09T20:51:22.852Z,8.83
2019-05-09T20:54:18.975Z,8.83
2019-05-09T20:57:11.858Z,6.37
2019-05-09T21:00:07.365Z,7.33
2019-05-09T21:03:01.435Z,5.53
2019-05-09T21:05:41.721Z,13.30
2019-05-09T21:08:49.233Z,17.67
2019-05-09T21:14:32.529Z,16.17
2019-05-09T21:17:09.512Z,9.87
2019-05-09T21:19:51.003Z,8.70
2019-05-09T21:22:31.377Z,10.30
2019-05-09T21:25:11.527Z,8.97
2019-05-09T21:27:49.503Z,9.67
2019-05-09T21:30:28.142Z,10.13
2019-05-09T21:33:08.469Z,8.87
2019-05-09T21:35:42.375Z,10.37
2019-05-09T21:38:22.950Z,9.30
2019-05-09T21:40:58.619Z,7.97
2019-05-09T21:43:34.400Z,7.10
2019-05-09T21:46:11.089Z,5.10
2019-05-09T21:48:51.916Z,5.73
2019-05-09T21:51:48.123Z,5.23
2019-05-09T21:54:28.840Z,6.33
2019-05-09T21:57:22.404Z,6.40
2019-05-09T22:00:13.417Z,11.93
2019-05-09T22:02:41.978Z,7.07
2019-05-09T22:05:48.230Z,4.07
2019-05-09T22:08:16.322Z,6.37
2019-05-09T22:11:22.972Z,3.43
2019-05-09T22:14:29.778Z,6.47
2019-05-09T22:17:23.910Z,6.70
2019-05-09T22:20:17.399Z,4.30
2019-05-09T22:23:24.170Z,7.47
2019-05-09T22:26:31.845Z,5.23
2019-05-09T22:29:00.208Z,6.87
2019-05-09T22:31:40.265Z,5.90
2019-05-09T22:34:34.396Z,5.47
2019-05-09T22:37:28.471Z,6.37
2019-05-09T22:40:35.581Z,7.10
2019-05-09T22:43:38.105Z,6.23
2019-05-09T22:46:48.577Z,4.07
2019-05-09T22:49:55.664Z,5.67
2019-05-09T22:53:02.339Z,7.13
2019-05-09T22:55:56.456Z,5.47
2019-05-09T22:58:49.884Z,3.83
2019-05-09T23:01:31.767Z,7.27
2019-05-09T23:04:25.725Z,6.80
2019-05-09T23:07:19.986Z,3.77
2019-05-09T23:10:27.289Z,6.20
2019-05-09T23:13:34.235Z,8.13
2019-05-09T23:16:28.454Z,4.50
2019-05-09T23:19:34.965Z,5.90
2019-05-09T23:22:28.959Z,5.57
2019-05-09T23:25:22.433Z,8.17
2019-05-09T23:28:17.924Z,4.90
2019-05-09T23:31:35.890Z,6.63
2019-05-09T23:34:42.532Z,6.33
2019-05-09T23:37:23.454Z,7.07
2019-05-09T23:40:17.240Z,6.00
2019-05-09T23:43:10.211Z,6.20
2019-05-09T23:46:04.341Z,7.63
2019-05-09T23:48:57.820Z,5.37
2019-05-09T23:51:51.423Z,4.83
2019-05-09T23:54:47.640Z,10.97
2019-05-09T23:57:53.349Z,8.40
